createdAt,value
2022-11-21T00:01:00.167Z,58.21
2022-11-21T00:03:27.316Z,57.54
2022-11-21T00:05:54.100Z,59.13
2022-11-21T00:08:22.302Z,58.82
2022-11-21T00:10:49.355Z,58.31
2022-11-21T00:13:20.890Z,58.33
2022-11-21T00:15:48.344Z,58.93
2022-11-21T00:18:15.929Z,61.39
2022-11-21T00:20:43.565Z,60.40
2022-11-21T00:23:11.238Z,60.84
2022-11-21T00:25:38.960Z,60.04
2022-11-21T00:28:06.864Z,59.18
2022-11-21T00:30:33.749Z,59.13
2022-11-21T00:33:00.753Z,59.30
2022-11-21T00:35:27.725Z,59.21
2022-11-21T00:37:54.613Z,58.76
2022-11-21T00:40:21.586Z,60.01
2022-11-21T00:42:48.289Z,59.60
2022-11-21T00:45:18.363Z,58.84
2022-11-21T00:47:48.168Z,59.85
2022-11-21T00:50:14.994Z,59.40
2022-11-21T00:52:41.826Z,58.87
2022-11-21T00:55:08.963Z,58.01
2022-11-21T00:57:35.767Z,59.02
2022-11-21T01:00:02.663Z,59.11
2022-11-21T01:02:29.355Z,58.84
2022-11-21T01:04:56.165Z,59.39
2022-11-21T01:07:22.906Z,58.13
2022-11-21T01:09:49.820Z,59.81
2022-11-21T01:12:16.506Z,59.95
2022-11-21T01:14:43.410Z,60.18
2022-11-21T01:17:10.195Z,60.01
2022-11-21T01:19:37.180Z,60.47
2022-11-21T01:22:03.888Z,59.65
2022-11-21T01:24:30.723Z,58.78
2022-11-21T01:26:57.646Z,61.58
2022-11-21T01:29:24.549Z,60.85
2022-11-21T01:31:51.354Z,59.99
2022-11-21T01:34:18.636Z,59.29
2022-11-21T01:36:45.571Z,61.70
2022-11-21T01:39:13.024Z,59.76
2022-11-21T01:41:42.541Z,60.12
2022-11-21T01:44:22.299Z,59.63
2022-11-21T01:46:51.122Z,59.74
2022-11-21T01:49:21.654Z,60.04
2022-11-21T01:51:54.431Z,59.77
2022-11-21T01:54:31.676Z,60.62
2022-11-21T01:57:04.417Z,61.64
2022-11-21T01:59:36.203Z,60.41
2022-11-21T02:02:05.064Z,58.38
2022-11-21T02:04:33.876Z,57.76
2022-11-21T02:07:06.322Z,60.64
2022-11-21T02:09:37.402Z,62.59
2022-11-21T02:12:13.600Z,60.34
2022-11-21T02:14:43.916Z,60.46
2022-11-21T02:17:11.154Z,60.56
2022-11-21T02:19:55.508Z,59.50
2022-11-21T02:22:45.540Z,60.05
2022-11-21T02:25:19.453Z,58.47
2022-11-21T02:27:49.261Z,57.49
2022-11-21T02:30:17.667Z,57.92
2022-11-21T02:32:47.221Z,60.79
2022-11-21T02:35:18.584Z,61.10
2022-11-21T02:37:57.593Z,58.37
2022-11-21T02:40:29.191Z,59.90
2022-11-21T02:43:08.870Z,58.71
2022-11-21T02:45:41.827Z,58.19
2022-11-21T02:48:09.075Z,58.50
2022-11-21T02:50:38.826Z,58.45
2022-11-21T02:53:07.432Z,58.01
2022-11-21T02:55:34.221Z,57.90
2022-11-21T02:58:04.811Z,57.41
2022-11-21T03:00:33.870Z,57.61
2022-11-21T03:03:00.841Z,58.43
2022-11-21T03:05:27.899Z,58.13
2022-11-21T03:07:54.717Z,57.90
2022-11-21T03:10:21.640Z,58.32
2022-11-21T03:12:48.431Z,60.91
2022-11-21T03:15:15.954Z,61.71
2022-11-21T03:17:43.347Z,59.26
2022-11-21T03:20:10.958Z,58.57
2022-11-21T03:22:37.886Z,58.39
2022-11-21T03:25:05.026Z,60.81
2022-11-21T03:27:31.670Z,59.11
2022-11-21T03:29:58.740Z,58.90
2022-11-21T03:32:25.480Z,57.95
2022-11-21T03:34:52.218Z,56.59
2022-11-21T03:37:19.388Z,57.70
2022-11-21T03:39:46.101Z,57.76
2022-11-21T03:42:13.165Z,56.40
2022-11-21T03:44:39.954Z,56.23
2022-11-21T03:47:06.898Z,56.80
2022-11-21T03:49:33.561Z,57.02
2022-11-21T03:52:00.371Z,57.93
2022-11-21T03:54:27.369Z,57.67
2022-11-21T03:56:54.490Z,58.12
2022-11-21T03:59:22.196Z,57.48
2022-11-21T04:01:49.178Z,57.69
2022-11-21T04:04:16.006Z,57.46
2022-11-21T04:06:42.966Z,56.76
2022-11-21T04:09:10.629Z,56.45
2022-11-21T04:11:37.814Z,57.80
2022-11-21T04:14:04.639Z,57.09
2022-11-21T04:16:31.619Z,56.27
2022-11-21T04:18:58.363Z,56.50
2022-11-21T04:21:25.422Z,56.51
2022-11-21T04:23:52.348Z,56.86
2022-11-21T04:26:19.157Z,55.76
2022-11-21T04:28:46.116Z,55.15
2022-11-21T04:31:13.349Z,55.07
2022-11-21T04:33:40.431Z,55.25
2022-11-21T04:36:08.942Z,54.41
2022-11-21T04:38:36.479Z,54.69
2022-11-21T04:41:03.486Z,54.79
2022-11-21T04:43:30.325Z,56.13
2022-11-21T04:45:57.023Z,58.13
2022-11-21T04:48:24.720Z,56.18
2022-11-21T04:50:51.482Z,57.82
2022-11-21T04:53:18.359Z,59.72
2022-11-21T04:55:45.041Z,59.42
2022-11-21T04:58:12.041Z,61.06
2022-11-21T05:00:39.799Z,59.95
2022-11-21T05:03:07.048Z,59.15
2022-11-21T05:05:33.910Z,58.53
2022-11-21T05:08:00.923Z,57.29
2022-11-21T05:10:27.884Z,58.01
2022-11-21T05:13:17.691Z,58.29
2022-11-21T05:15:45.030Z,58.25
2022-11-21T05:18:11.801Z,56.38
2022-11-21T05:20:38.799Z,57.41
2022-11-21T05:23:05.557Z,57.79
2022-11-21T05:25:32.284Z,57.22
2022-11-21T05:27:59.305Z,58.64
2022-11-21T05:30:26.175Z,57.72
2022-11-21T05:32:53.196Z,56.89
2022-11-21T05:35:20.082Z,56.81
2022-11-21T05:37:46.944Z,56.89
2022-11-21T05:40:13.730Z,56.75
2022-11-21T05:43:01.537Z,56.35
2022-11-21T05:45:28.398Z,55.77
2022-11-21T05:47:55.165Z,55.98
2022-11-21T05:50:22.042Z,57.93
2022-11-21T05:52:49.018Z,57.08
2022-11-21T05:55:15.853Z,58.27
2022-11-21T05:57:42.770Z,56.40
2022-11-21T06:00:09.880Z,57.02
2022-11-21T06:02:55.375Z,55.27
2022-11-21T06:05:22.376Z,55.49
2022-11-21T06:07:49.425Z,54.68
2022-11-21T06:10:16.856Z,56.37
2022-11-21T06:12:43.556Z,57.04
2022-11-21T06:15:10.879Z,54.63
2022-11-21T06:17:37.612Z,53.61
2022-11-21T06:20:04.673Z,53.70
2022-11-21T06:22:31.589Z,53.52
2022-11-21T06:24:58.393Z,53.91
2022-11-21T06:27:25.349Z,54.34
2022-11-21T06:29:52.057Z,54.81
2022-11-21T06:32:18.968Z,54.47
2022-11-21T06:34:45.743Z,53.61
2022-11-21T06:37:12.719Z,54.03
2022-11-21T06:39:39.449Z,53.33
2022-11-21T06:42:06.323Z,54.07
2022-11-21T06:44:33.070Z,54.66
2022-11-21T06:47:00.068Z,54.49
2022-11-21T06:49:26.783Z,54.54
2022-11-21T06:51:54.735Z,56.19
2022-11-21T06:54:21.652Z,56.33
2022-11-21T06:56:51.844Z,57.36
2022-11-21T06:59:18.585Z,57.04
2022-11-21T07:01:45.491Z,56.68
2022-11-21T07:04:12.652Z,57.64
2022-11-21T07:06:39.560Z,57.91
2022-11-21T07:11:53.466Z,56.26
2022-11-21T07:14:20.333Z,57.09
2022-11-21T07:16:47.031Z,57.94
2022-11-21T07:19:14.055Z,57.62
2022-11-21T07:21:43.112Z,58.13
2022-11-21T07:24:09.846Z,58.92
2022-11-21T07:26:37.805Z,58.24
2022-11-21T07:29:04.453Z,58.44
2022-11-21T07:31:31.315Z,58.24
2022-11-21T07:33:58.079Z,57.94
2022-11-21T07:36:24.944Z,58.21
2022-11-21T07:38:52.672Z,58.40
2022-11-21T07:41:19.440Z,59.00
2022-11-21T07:43:46.158Z,59.04
2022-11-21T07:46:12.828Z,59.37
2022-11-21T07:48:39.552Z,58.81
2022-11-21T07:51:06.278Z,58.45
2022-11-21T07:53:33.211Z,58.54
2022-11-21T07:56:00.501Z,58.36
2022-11-21T07:58:27.332Z,58.09
2022-11-21T08:00:54.292Z,58.65
2022-11-21T08:03:21.025Z,57.87
2022-11-21T08:05:48.642Z,59.26
2022-11-21T08:08:15.525Z,57.00
2022-11-21T08:10:45.253Z,57.71
2022-11-21T08:13:13.178Z,57.48
2022-11-21T08:15:40.402Z,57.26
2022-11-21T08:18:11.866Z,57.10
2022-11-21T08:20:38.963Z,57.27
2022-11-21T08:23:06.753Z,57.51
2022-11-21T08:25:41.018Z,56.33
2022-11-21T08:28:09.583Z,56.27
2022-11-21T08:30:37.623Z,56.21
2022-11-21T08:33:05.091Z,55.93
2022-11-21T08:35:31.872Z,56.24
2022-11-21T08:38:00.662Z,57.43
2022-11-21T08:40:29.602Z,56.43
2022-11-21T08:43:00.491Z,55.22
2022-11-21T08:45:27.611Z,56.08
2022-11-21T08:47:55.167Z,55.63
2022-11-21T08:50:23.247Z,55.14
2022-11-21T08:52:50.127Z,55.57
2022-11-21T08:55:17.123Z,55.39
2022-11-21T08:57:44.005Z,55.68
2022-11-21T09:00:12.727Z,54.85
2022-11-21T09:02:39.568Z,56.00
2022-11-21T09:05:07.121Z,56.08
2022-11-21T09:07:34.039Z,55.69
2022-11-21T09:10:00.898Z,54.96
2022-11-21T09:12:28.693Z,54.62
2022-11-21T09:15:14.195Z,54.22
2022-11-21T09:17:59.509Z,55.10
2022-11-21T09:20:26.395Z,54.97
2022-11-21T09:22:53.278Z,54.53
2022-11-21T09:25:20.283Z,55.66
2022-11-21T09:27:47.156Z,56.00
2022-11-21T09:30:14.684Z,55.94
2022-11-21T09:32:41.495Z,56.08
2022-11-21T09:35:09.204Z,56.25
2022-11-21T09:37:40.434Z,56.89
2022-11-21T09:40:10.673Z,56.94
2022-11-21T09:42:55.994Z,57.03
2022-11-21T09:45:29.676Z,56.64
2022-11-21T09:47:56.839Z,57.52
2022-11-21T09:50:30.659Z,57.26
2022-11-21T09:53:21.138Z,58.13
2022-11-21T09:56:12.550Z,56.32
2022-11-21T09:58:50.534Z,57.30
2022-11-21T10:01:18.072Z,56.58
2022-11-21T10:03:50.822Z,57.64
2022-11-21T10:06:36.529Z,57.29
2022-11-21T10:09:31.167Z,55.79
2022-11-21T10:12:30.449Z,56.75
2022-11-21T10:15:06.875Z,56.66
2022-11-21T10:17:36.581Z,56.80
2022-11-21T10:20:10.987Z,57.40
2022-11-21T10:22:44.622Z,57.66
2022-11-21T10:25:27.113Z,57.18
2022-11-21T10:27:56.803Z,57.51
2022-11-21T10:30:23.735Z,56.81
2022-11-21T10:32:57.215Z,56.18
2022-11-21T10:35:25.861Z,57.07
2022-11-21T10:38:01.518Z,57.34
2022-11-21T10:40:41.132Z,56.25
2022-11-21T10:43:45.814Z,57.49
2022-11-21T10:46:12.681Z,57.11
2022-11-21T10:48:39.459Z,57.88
2022-11-21T10:51:29.034Z,56.86
2022-11-21T10:54:29.727Z,57.12
2022-11-21T10:57:07.793Z,57.73
2022-11-21T10:59:34.742Z,58.19
2022-11-21T11:02:13.712Z,57.89
2022-11-21T11:04:47.293Z,58.39
2022-11-21T11:07:24.325Z,58.65
2022-11-21T11:09:52.697Z,58.41
2022-11-21T11:12:51.297Z,57.46
2022-11-21T11:15:20.708Z,57.00
2022-11-21T11:18:05.598Z,57.75
2022-11-21T11:20:41.366Z,58.48
2022-11-21T11:23:24.305Z,58.08
2022-11-21T11:25:57.669Z,58.20
2022-11-21T11:28:26.465Z,58.55
2022-11-21T11:30:56.052Z,58.62
2022-11-21T11:33:35.986Z,57.42
2022-11-21T11:36:15.194Z,57.38
2022-11-21T11:38:57.470Z,56.09
2022-11-21T11:42:16.355Z,56.54
2022-11-21T11:45:18.450Z,56.16
2022-11-21T11:47:55.950Z,55.20
2022-11-21T11:50:31.566Z,53.17
2022-11-21T11:53:07.608Z,51.55
2022-11-21T11:55:37.051Z,50.43
2022-11-21T11:58:11.569Z,49.30
2022-11-21T12:01:17.193Z,50.83
2022-11-21T12:04:13.223Z,50.58
2022-11-21T12:07:54.064Z,49.01
2022-11-21T12:09:39.800Z,48.44
2022-11-21T12:12:16.996Z,49.21
2022-11-21T12:15:21.102Z,48.25
2022-11-21T12:18:15.575Z,47.90
2022-11-21T12:20:54.997Z,47.85
2022-11-21T12:23:25.137Z,47.30
2022-11-21T12:26:03.777Z,48.34
2022-11-21T12:28:49.461Z,48.23
2022-11-21T12:32:04.352Z,45.21
2022-11-21T12:34:49.186Z,45.67
2022-11-21T12:37:47.437Z,46.72
2022-11-21T12:40:20.285Z,47.01
2022-11-21T12:42:56.898Z,47.26
2022-11-21T12:45:32.400Z,48.88
2022-11-21T12:48:41.393Z,49.92
2022-11-21T12:51:39.094Z,50.66
2022-11-21T12:54:33.241Z,51.87
2022-11-21T12:57:17.717Z,50.17
2022-11-21T13:00:04.052Z,50.04
2022-11-21T13:02:52.433Z,49.07
2022-11-21T13:05:27.539Z,47.68
2022-11-21T13:08:03.777Z,48.43
2022-11-21T13:10:32.561Z,48.13
2022-11-21T13:13:03.158Z,48.94
2022-11-21T13:15:50.842Z,48.85
2022-11-21T13:18:24.365Z,49.73
2022-11-21T13:20:52.516Z,51.08
2022-11-21T13:23:42.526Z,50.95
2022-11-21T13:26:24.714Z,51.32
2022-11-21T13:29:08.617Z,51.35
2022-11-21T13:31:35.900Z,51.10
2022-11-21T13:34:04.347Z,51.49
2022-11-21T13:36:33.966Z,50.51
2022-11-21T13:39:00.807Z,50.49
2022-11-21T13:41:55.634Z,50.79
2022-11-21T13:44:34.684Z,51.55
2022-11-21T13:47:13.424Z,51.71
2022-11-21T13:49:43.299Z,51.14
2022-11-21T13:52:19.222Z,51.77
2022-11-21T13:54:54.986Z,52.03
2022-11-21T13:57:34.543Z,52.78
2022-11-21T14:00:38.838Z,53.03
2022-11-21T14:03:37.456Z,52.71
2022-11-21T14:06:20.993Z,52.66
2022-11-21T14:09:14.817Z,52.99
2022-11-21T14:11:55.991Z,52.36
2022-11-21T14:14:29.425Z,51.52
2022-11-21T14:17:08.863Z,51.70
2022-11-21T14:19:36.483Z,51.64
2022-11-21T14:22:03.273Z,51.50
2022-11-21T14:24:30.309Z,51.35
2022-11-21T14:26:58.137Z,51.58
2022-11-21T14:29:38.846Z,51.21
2022-11-21T14:32:06.331Z,51.52
2022-11-21T14:34:33.370Z,51.70
2022-11-21T14:37:04.223Z,51.28
2022-11-21T14:39:43.501Z,51.79
2022-11-21T14:42:16.403Z,51.60
2022-11-21T14:44:44.202Z,51.97
2022-11-21T14:47:25.088Z,52.10
2022-11-21T14:49:55.494Z,52.27
2022-11-21T14:52:29.244Z,51.59
2022-11-21T14:57:48.372Z,51.26
2022-11-21T15:03:21.758Z,50.37
2022-11-21T15:06:07.381Z,50.41
2022-11-21T15:11:28.868Z,51.11
2022-11-21T15:14:18.015Z,51.42
2022-11-21T15:16:51.373Z,50.83
2022-11-21T15:19:23.997Z,51.23
2022-11-21T15:21:56.581Z,50.23
2022-11-21T15:24:37.746Z,49.92
2022-11-21T15:27:27.020Z,50.58
2022-11-21T15:30:14.771Z,50.60
2022-11-21T15:33:01.360Z,51.43
2022-11-21T15:35:48.472Z,51.49
2022-11-21T15:38:26.880Z,52.62
2022-11-21T15:40:59.260Z,53.07
2022-11-21T15:46:42.217Z,52.21
2022-11-21T15:49:32.309Z,52.92
2022-11-21T15:52:09.590Z,53.13
2022-11-21T15:54:36.867Z,52.89
2022-11-21T15:57:04.010Z,53.12
2022-11-21T15:57:13.829Z,52.60
2022-11-21T15:59:31.299Z,52.70
2022-11-21T16:01:58.682Z,52.31
2022-11-21T16:04:26.301Z,53.48
2022-11-21T16:06:54.742Z,54.67
2022-11-21T16:09:21.469Z,52.93
2022-11-21T16:11:48.425Z,53.55
2022-11-21T16:14:18.345Z,53.46
2022-11-21T16:16:47.093Z,53.41
2022-11-21T16:19:15.568Z,53.44
2022-11-21T16:21:42.744Z,53.14
2022-11-21T16:24:09.662Z,52.01
2022-11-21T16:26:36.425Z,52.47
2022-11-21T16:29:05.413Z,52.27
2022-11-21T16:31:33.185Z,52.46
2022-11-21T16:34:00.919Z,52.77
2022-11-21T16:36:30.012Z,53.31
2022-11-21T16:39:07.640Z,53.68
2022-11-21T16:41:37.208Z,53.48
2022-11-21T16:44:04.421Z,54.89
2022-11-21T16:46:31.360Z,53.73
2022-11-21T16:49:03.504Z,54.64
2022-11-21T16:51:30.930Z,55.46
2022-11-21T16:54:00.617Z,55.98
2022-11-21T16:56:31.434Z,55.32
2022-11-21T16:58:58.231Z,56.13
2022-11-21T17:01:26.982Z,56.68
2022-11-21T17:03:54.406Z,56.91
2022-11-21T17:06:24.614Z,57.03
2022-11-21T17:08:51.350Z,56.93
2022-11-21T17:11:23.620Z,57.56
2022-11-21T17:13:51.442Z,60.28
2022-11-21T17:16:20.914Z,57.50
2022-11-21T17:18:48.161Z,57.32
2022-11-21T17:21:16.237Z,57.22
2022-11-21T17:23:45.895Z,57.79
2022-11-21T17:26:14.959Z,58.37
2022-11-21T17:28:45.695Z,56.69
2022-11-21T17:31:15.480Z,56.02
2022-11-21T17:33:43.450Z,56.88
2022-11-21T17:36:14.860Z,57.27
2022-11-21T17:38:43.128Z,56.98
2022-11-21T17:41:13.152Z,58.12
2022-11-21T17:43:40.419Z,58.95
2022-11-21T17:46:10.527Z,58.39
2022-11-21T17:48:38.534Z,57.64
2022-11-21T17:51:09.412Z,58.39
2022-11-21T17:53:38.519Z,58.09
2022-11-21T17:56:06.815Z,57.24
2022-11-21T17:58:34.202Z,57.51
2022-11-21T18:03:53.124Z,58.43
2022-11-21T18:06:20.064Z,58.55
2022-11-21T18:08:48.459Z,58.35
2022-11-21T18:11:21.129Z,57.88
2022-11-21T18:13:49.916Z,57.60
2022-11-21T18:16:19.898Z,58.31
2022-11-21T18:18:47.158Z,58.42
2022-11-21T18:21:17.473Z,58.71
2022-11-21T18:23:45.253Z,58.42
2022-11-21T18:26:15.089Z,57.83
2022-11-21T18:28:42.465Z,58.12
2022-11-21T18:31:15.153Z,58.52
2022-11-21T18:33:43.173Z,57.76
2022-11-21T18:36:12.123Z,57.15
2022-11-21T18:38:48.700Z,57.50
2022-11-21T18:41:20.877Z,57.23
2022-11-21T18:43:55.994Z,57.88
2022-11-21T18:46:24.555Z,57.79
2022-11-21T18:49:04.148Z,57.29
2022-11-21T18:51:33.258Z,57.87
2022-11-21T18:54:04.299Z,57.84
2022-11-21T18:56:32.282Z,56.25
2022-11-21T18:58:59.521Z,55.86
2022-11-21T19:01:29.214Z,55.40
2022-11-21T19:03:57.491Z,55.98
2022-11-21T19:06:26.000Z,55.61
2022-11-21T19:08:54.865Z,55.29
2022-11-21T19:11:26.944Z,54.81
2022-11-21T19:13:55.085Z,57.15
2022-11-21T19:16:24.852Z,56.73
2022-11-21T19:21:42.250Z,56.98
2022-11-21T19:24:13.843Z,57.48
2022-11-21T19:26:41.482Z,57.69
2022-11-21T19:29:08.475Z,61.40
2022-11-21T19:31:40.695Z,58.39
2022-11-21T19:34:09.813Z,57.29
2022-11-21T19:36:36.700Z,58.11
2022-11-21T19:39:03.493Z,56.89
2022-11-21T19:41:30.900Z,56.67
2022-11-21T19:43:59.800Z,56.38
2022-11-21T19:46:27.842Z,56.47
2022-11-21T19:48:55.965Z,56.06
2022-11-21T19:51:28.168Z,57.14
2022-11-21T19:53:55.359Z,56.66
2022-11-21T19:56:24.045Z,56.88
2022-11-21T19:58:52.338Z,56.84
2022-11-21T20:01:27.451Z,56.94
2022-11-21T20:03:56.347Z,56.28
2022-11-21T20:06:26.009Z,56.23
2022-11-21T20:08:55.189Z,57.26
2022-11-21T20:11:23.379Z,56.49
2022-11-21T20:13:50.978Z,58.08
2022-11-21T20:16:18.534Z,57.50
2022-11-21T20:18:45.503Z,58.13
2022-11-21T20:21:13.357Z,58.50
2022-11-21T20:23:40.923Z,60.09
2022-11-21T20:26:08.971Z,60.27
2022-11-21T20:28:37.232Z,57.67
2022-11-21T20:31:09.652Z,56.68
2022-11-21T20:33:38.590Z,57.64
2022-11-21T20:36:11.063Z,58.15
2022-11-21T20:38:38.060Z,58.41
2022-11-21T20:41:05.225Z,57.89
2022-11-21T20:44:02.801Z,56.85
2022-11-21T20:46:20.740Z,57.55
2022-11-21T20:48:48.265Z,56.36
2022-11-21T20:54:03.869Z,56.34
2022-11-21T20:56:35.195Z,56.82
2022-11-21T20:59:03.643Z,57.47
2022-11-21T21:01:31.120Z,56.82
2022-11-21T21:03:58.169Z,56.38
2022-11-21T21:06:25.112Z,55.85
2022-11-21T21:08:52.927Z,54.98
2022-11-21T21:11:51.600Z,54.37
2022-11-21T21:14:09.335Z,53.63
2022-11-21T21:16:36.369Z,53.52
2022-11-21T21:19:03.463Z,53.53
2022-11-21T21:21:33.285Z,54.67
2022-11-21T21:24:03.050Z,54.70
2022-11-21T21:26:41.919Z,54.89
2022-11-21T21:29:10.907Z,54.38
2022-11-21T21:31:37.736Z,55.27
2022-11-21T21:34:04.406Z,55.02
2022-11-21T21:36:32.213Z,55.81
2022-11-21T21:39:00.341Z,55.00
2022-11-21T21:41:29.033Z,54.46
2022-11-21T21:43:57.530Z,54.09
2022-11-21T21:46:28.101Z,54.61
2022-11-21T21:48:57.412Z,54.70
2022-11-21T21:51:29.134Z,54.12
2022-11-21T21:53:57.309Z,54.63
2022-11-21T21:56:25.756Z,55.11
2022-11-21T21:58:53.188Z,54.76
2022-11-21T22:01:25.611Z,54.69
2022-11-21T22:03:54.224Z,54.80
2022-11-21T22:06:21.104Z,54.26
2022-11-21T22:08:49.048Z,53.25
2022-11-21T22:11:18.986Z,53.20
2022-11-21T22:13:47.848Z,54.09
2022-11-21T22:16:15.190Z,53.73
2022-11-21T22:18:42.294Z,54.26
2022-11-21T22:21:23.722Z,53.50
2022-11-21T22:24:17.824Z,53.08
2022-11-21T22:26:38.732Z,53.35
2022-11-21T22:29:06.099Z,54.15
2022-11-21T22:31:33.193Z,53.31
2022-11-21T22:34:00.719Z,53.69
2022-11-21T22:36:27.578Z,53.85
2022-11-21T22:38:55.641Z,53.10
2022-11-21T22:41:25.151Z,52.29
2022-11-21T22:43:59.478Z,52.53
2022-11-21T22:46:28.129Z,52.39
2022-11-21T22:48:55.257Z,51.71
2022-11-21T22:51:25.254Z,51.19
2022-11-21T22:53:52.368Z,51.32
2022-11-21T22:56:21.560Z,51.83
2022-11-21T22:58:49.030Z,51.99
2022-11-21T23:01:21.070Z,52.37
2022-11-21T23:03:49.290Z,52.20
2022-11-21T23:06:17.254Z,52.46
2022-11-21T23:08:44.563Z,52.40
2022-11-21T23:11:21.594Z,52.06
2022-11-21T23:13:49.196Z,52.10
2022-11-21T23:16:16.803Z,52.20
2022-11-21T23:18:44.114Z,52.66
2022-11-21T23:21:12.306Z,52.05
2022-11-21T23:23:39.348Z,52.07
2022-11-21T23:26:06.830Z,52.13
2022-11-21T23:28:34.055Z,52.81
2022-11-21T23:31:00.788Z,52.36
2022-11-21T23:33:27.647Z,52.12
2022-11-21T23:35:54.457Z,50.91
2022-11-21T23:38:22.054Z,51.29
2022-11-21T23:40:49.739Z,51.12
2022-11-21T23:43:17.576Z,51.35
2022-11-21T23:45:45.426Z,52.71
2022-11-21T23:48:12.240Z,52.18
2022-11-21T23:50:39.191Z,51.99
2022-11-21T23:53:05.873Z,52.06
2022-11-21T23:55:32.701Z,52.20
2022-11-21T23:57:59.635Z,51.88
